Time;durP1;ratioP1;P1;durP2;ratioP2;P2;SDS_P1;SDS_P2;PMS_P1;PMS_P2;Temp;Humidity;BMP_temperature;BMP_pressure;BME280_temperature;BME280_humidity;BME280_pressure;Samples;Min_cycle;Max_cycle;Signal;HPM_P1;HPM_P2
2023/01/25 00:00:41;;;;;;;0.00;0.00;;;2.30;99.90;;;;;;5012955;28;20181;-65
2023/01/25 00:03:07;;;;;;;0.75;0.73;;;2.30;99.90;;;;;;5010188;28;20203;-64
2023/01/25 00:05:32;;;;;;;1.63;1.52;;;3.20;99.90;;;;;;5002770;28;20980;-64
2023/01/25 00:07:58;;;;;;;0.38;0.38;;;3.60;99.90;;;;;;5012649;28;20190;-64
2023/01/25 00:10:23;;;;;;;0.10;0.10;;;3.60;99.90;;;;;;5012779;28;20207;-64
2023/01/25 00:12:49;;;;;;;0.00;0.00;;;3.40;99.90;;;;;;5012504;28;20532;-64
2023/01/25 00:15:14;;;;;;;0.13;0.13;;;3.30;99.90;;;;;;5012238;28;20178;-64
2023/01/25 00:17:40;;;;;;;0.15;0.15;;;3.10;99.90;;;;;;5012392;28;20218;-65
2023/01/25 00:20:06;;;;;;;0.08;0.08;;;3.00;99.90;;;;;;4994818;28;20189;-64
2023/01/25 00:22:32;;;;;;;0.00;0.00;;;2.90;99.90;;;;;;5012653;28;20185;-64
2023/01/25 00:24:57;;;;;;;0.00;0.00;;;2.80;99.90;;;;;;5011897;28;20545;-63
2023/01/25 00:27:23;;;;;;;0.00;0.00;;;2.80;99.90;;;;;;5011614;28;20175;-64
2023/01/25 00:29:48;;;;;;;0.28;0.10;;;2.70;99.90;;;;;;5011434;28;20187;-64
2023/01/25 00:32:14;;;;;;;0.00;0.00;;;2.60;99.90;;;;;;5011807;28;20170;-64
2023/01/25 00:34:48;;;;;;;0.25;0.25;;;2.60;99.90;;;;;;5011838;28;20179;-64
2023/01/25 00:37:27;;;;;;;0.00;0.00;;;2.50;99.90;;;;;;5011450;28;20297;-64
2023/01/25 00:39:52;;;;;;;0.00;0.00;;;2.50;99.90;;;;;;5011899;28;20183;-64
2023/01/25 00:42:19;;;;;;;0.03;0.03;;;2.50;99.90;;;;;;5011772;28;20241;-64
2023/01/25 00:44:45;;;;;;;0.05;0.05;;;2.50;99.90;;;;;;4996404;28;20685;-64
2023/01/25 00:47:11;;;;;;;0.00;0.00;;;2.50;99.90;;;;;;4994221;28;20681;-64
2023/01/25 00:49:38;;;;;;;0.25;0.25;;;2.50;99.90;;;;;;5011910;28;20585;-64
2023/01/25 00:52:04;;;;;;;0.10;0.10;;;2.50;99.90;;;;;;5011918;28;20542;-64
2023/01/25 00:54:29;;;;;;;0.10;0.10;;;2.40;99.90;;;;;;5011984;28;20225;-64
2023/01/25 00:56:55;;;;;;;0.28;0.28;;;2.50;99.90;;;;;;5011694;28;20261;-64
2023/01/25 00:59:22;;;;;;;0.08;0.08;;;2.40;99.90;;;;;;5009602;28;20585;-63
2023/01/25 01:01:48;;;;;;;0.00;0.00;;;2.40;99.90;;;;;;4993378;28;20176;-64
2023/01/25 01:04:13;;;;;;;0.00;0.00;;;2.40;99.90;;;;;;4992192;28;20325;-65
2023/01/25 01:06:40;;;;;;;0.00;0.00;;;2.40;99.90;;;;;;5010775;28;20183;-63
2023/01/25 01:09:10;;;;;;;0.10;0.10;;;2.30;99.90;;;;;;5011863;28;20646;-64
2023/01/25 01:11:36;;;;;;;0.00;0.00;;;2.40;99.90;;;;;;5011810;28;20179;-65
2023/01/25 01:14:01;;;;;;;0.00;0.00;;;2.30;99.90;;;;;;5011710;28;20212;-63
2023/01/25 01:16:27;;;;;;;0.10;0.10;;;2.30;99.90;;;;;;5011370;28;20257;-64
2023/01/25 01:18:53;;;;;;;0.00;0.00;;;2.30;99.90;;;;;;5011547;28;20214;-64
2023/01/25 01:21:19;;;;;;;0.08;0.08;;;2.20;99.90;;;;;;4994057;28;20179;-64
2023/01/25 01:23:44;;;;;;;0.00;0.00;;;2.30;99.90;;;;;;5011912;28;20189;-64
2023/01/25 01:26:15;;;;;;;0.03;0.03;;;2.20;99.90;;;;;;5011744;28;20217;-64
2023/01/25 01:28:41;;;;;;;0.00;0.00;;;2.30;99.90;;;;;;5011770;28;20660;-64
2023/01/25 01:31:19;;;;;;;0.00;0.00;;;2.30;99.90;;;;;;5011519;28;20179;-64
2023/01/25 01:33:52;;;;;;;0.00;0.00;;;2.30;99.90;;;;;;5010708;28;20542;-64
2023/01/25 01:36:19;;;;;;;0.00;0.00;;;2.30;99.90;;;;;;5011544;28;20183;-64
2023/01/25 01:38:45;;;;;;;0.10;0.10;;;2.30;99.90;;;;;;5010668;28;20218;-65
2023/01/25 01:41:11;;;;;;;0.47;0.47;;;2.30;99.90;;;;;;5011010;28;20285;-64
2023/01/25 01:43:37;;;;;;;0.03;0.03;;;2.30;99.90;;;;;;5010765;28;20214;-64
2023/01/25 01:46:24;;;;;;;0.00;0.00;;;2.20;99.90;;;;;;5010677;28;20240;-64
2023/01/25 01:48:54;;;;;;;0.00;0.00;;;2.20;99.90;;;;;;5000440;28;20270;-64
2023/01/25 01:51:37;;;;;;;0.10;0.10;;;2.10;99.90;;;;;;5010950;28;20583;-64
2023/01/25 01:54:31;;;;;;;0.00;0.00;;;2.10;99.90;;;;;;5007133;28;20175;-64
2023/01/25 01:57:05;;;;;;;0.00;0.00;;;2.10;99.90;;;;;;5011045;28;20175;-64
2023/01/25 01:59:40;;;;;;;0.10;0.10;;;2.10;99.90;;;;;;5012377;28;20272;-64
2023/01/25 02:02:06;;;;;;;0.00;0.00;;;2.10;99.90;;;;;;4995755;28;20186;-64
2023/01/25 02:04:31;;;;;;;0.00;0.00;;;2.10;99.90;;;;;;5005469;28;20191;-64
2023/01/25 02:07:10;;;;;;;0.00;0.00;;;2.10;99.90;;;;;;5014706;28;20677;-64
2023/01/25 02:09:36;;;;;;;0.05;0.05;;;2.10;99.90;;;;;;5013983;28;20638;-64
2023/01/25 02:12:03;;;;;;;0.10;0.10;;;2.10;99.90;;;;;;5014623;28;20190;-64
2023/01/25 02:14:29;;;;;;;0.47;0.47;;;2.10;99.90;;;;;;5014722;28;20175;-63
2023/01/25 02:16:55;;;;;;;0.03;0.03;;;2.10;99.90;;;;;;5014393;28;20697;-64
2023/01/25 02:19:30;;;;;;;0.00;0.00;;;2.00;99.90;;;;;;5014541;28;20582;-63
2023/01/25 02:21:58;;;;;;;0.00;0.00;;;2.00;99.90;;;;;;5014370;28;20193;-64
2023/01/25 02:24:28;;;;;;;0.00;0.00;;;2.00;99.90;;;;;;5014079;28;20275;-63
2023/01/25 02:26:54;;;;;;;0.00;0.00;;;2.00;99.90;;;;;;5014264;28;20688;-64
2023/01/25 02:29:22;;;;;;;0.03;0.03;;;2.00;99.90;;;;;;5014489;28;20217;-64
2023/01/25 02:31:51;;;;;;;0.00;0.00;;;2.00;99.90;;;;;;5014492;28;20186;-64
2023/01/25 02:34:17;;;;;;;0.20;0.20;;;1.90;99.90;;;;;;5014216;28;20189;-64
2023/01/25 02:36:43;;;;;;;0.68;0.35;;;1.90;99.90;;;;;;5014263;28;20174;-64
2023/01/25 02:39:14;;;;;;;0.63;0.63;;;1.90;99.90;;;;;;5013690;28;20221;-64
2023/01/25 02:41:42;;;;;;;0.10;0.10;;;1.90;99.90;;;;;;5014408;28;20167;-64
2023/01/25 02:44:26;;;;;;;0.30;0.30;;;1.90;99.90;;;;;;5013817;28;20277;-64
2023/01/25 02:46:52;;;;;;;0.13;0.13;;;1.90;99.90;;;;;;4996419;28;20202;-64
2023/01/25 02:49:18;;;;;;;0.00;0.00;;;1.90;99.90;;;;;;5014242;28;20629;-64
2023/01/25 02:51:47;;;;;;;0.00;0.00;;;2.00;99.90;;;;;;5013959;28;20174;-63
2023/01/25 02:54:15;;;;;;;0.00;0.00;;;2.00;99.90;;;;;;5013657;28;20810;-63
2023/01/25 02:56:40;;;;;;;0.10;0.10;;;2.10;99.90;;;;;;5013296;28;20179;-63
2023/01/25 02:59:07;;;;;;;0.28;0.28;;;2.10;99.90;;;;;;5013275;28;20222;-63
2023/01/25 03:01:37;;;;;;;0.28;0.22;;;2.00;99.90;;;;;;5012214;28;20183;-63
2023/01/25 03:04:04;;;;;;;0.00;0.00;;;2.00;99.90;;;;;;5005734;28;20205;-63
2023/01/25 03:06:30;;;;;;;0.10;0.10;;;2.00;99.90;;;;;;5013529;28;20197;-63
2023/01/25 03:08:55;;;;;;;0.10;0.10;;;2.00;99.90;;;;;;5013110;28;20174;-63
2023/01/25 03:11:21;;;;;;;0.20;0.20;;;2.00;99.90;;;;;;5013631;28;20216;-63
2023/01/25 03:13:46;;;;;;;0.00;0.00;;;2.00;99.90;;;;;;5013395;28;20183;-63
2023/01/25 03:16:12;;;;;;;0.17;0.17;;;2.00;99.90;;;;;;5013324;28;20719;-63
2023/01/25 03:18:39;;;;;;;0.17;0.17;;;2.00;99.90;;;;;;5013281;28;20285;-63
2023/01/25 03:21:10;;;;;;;0.00;0.00;;;2.00;99.90;;;;;;5013111;28;20182;-63
2023/01/25 03:23:36;;;;;;;0.25;0.25;;;2.00;99.90;;;;;;5012747;28;20608;-63
2023/01/25 03:26:13;;;;;;;0.10;0.10;;;1.90;99.90;;;;;;5012977;28;20269;-63
2023/01/25 03:28:40;;;;;;;0.20;0.20;;;1.90;99.90;;;;;;5013068;28;20233;-63
2023/01/25 03:31:08;;;;;;;0.10;0.10;;;1.90;99.90;;;;;;5013163;28;20175;-63
2023/01/25 03:33:34;;;;;;;0.13;0.13;;;1.90;99.90;;;;;;5013367;28;20599;-64
2023/01/25 03:36:00;;;;;;;0.03;0.03;;;1.90;99.90;;;;;;5013053;28;20214;-64
2023/01/25 03:38:26;;;;;;;0.00;0.00;;;1.90;99.90;;;;;;5012597;28;20613;-63
2023/01/25 03:40:52;;;;;;;0.77;0.40;;;1.80;99.90;;;;;;5012939;28;20266;-63
2023/01/25 03:43:18;;;;;;;0.10;0.10;;;1.90;99.90;;;;;;5012811;28;20289;-63
2023/01/25 03:45:43;;;;;;;0.00;0.00;;;1.80;99.90;;;;;;5012891;28;20689;-63
2023/01/25 03:48:09;;;;;;;0.10;0.10;;;1.80;99.90;;;;;;5012974;28;20262;-63
2023/01/25 03:50:34;;;;;;;0.00;0.00;;;1.80;99.90;;;;;;5012751;28;20185;-63
2023/01/25 03:53:05;;;;;;;0.00;0.00;;;1.80;99.90;;;;;;5012878;28;20194;-63
2023/01/25 03:55:34;;;;;;;0.00;0.00;;;1.80;99.90;;;;;;5012567;28;20183;-63
2023/01/25 03:58:00;;;;;;;0.00;0.00;;;1.80;99.90;;;;;;5012537;28;20207;-64
2023/01/25 04:00:25;;;;;;;0.10;0.10;;;1.80;99.90;;;;;;5012635;28;20197;-63
2023/01/25 04:02:52;;;;;;;0.13;0.13;;;1.80;99.90;;;;;;5012231;28;20199;-63
2023/01/25 04:05:18;;;;;;;0.00;0.00;;;1.80;99.90;;;;;;5007738;28;20183;-64
2023/01/25 04:07:43;;;;;;;0.00;0.00;;;1.80;99.90;;;;;;5012025;28;20183;-64
2023/01/25 04:10:10;;;;;;;0.33;0.30;;;1.70;99.90;;;;;;5011777;28;20190;-64
2023/01/25 04:12:35;;;;;;;0.10;0.10;;;1.70;99.90;;;;;;5012138;28;20189;-63
2023/01/25 04:15:01;;;;;;;0.00;0.00;;;1.70;99.90;;;;;;5011998;28;20175;-63
2023/01/25 04:17:26;;;;;;;0.00;0.00;;;1.70;99.90;;;;;;5011996;28;20222;-63
2023/01/25 04:19:52;;;;;;;0.10;0.10;;;1.70;99.90;;;;;;5012146;28;20187;-64
2023/01/25 04:22:18;;;;;;;0.00;0.00;;;1.70;99.90;;;;;;5011811;28;20167;-63
2023/01/25 04:24:43;;;;;;;0.10;0.10;;;1.70;99.90;;;;;;5011872;28;20213;-63
2023/01/25 04:27:09;;;;;;;0.20;0.20;;;1.70;99.90;;;;;;5010786;28;20182;-63
2023/01/25 04:29:35;;;;;;;0.10;0.10;;;1.70;99.90;;;;;;5000490;28;20179;-63
2023/01/25 04:32:01;;;;;;;0.00;0.00;;;1.60;99.90;;;;;;4994867;28;20289;-64
2023/01/25 04:34:26;;;;;;;0.17;0.17;;;1.70;99.90;;;;;;5001087;28;20241;-64
2023/01/25 04:36:52;;;;;;;0.00;0.00;;;1.60;99.90;;;;;;5011916;28;20634;-64
2023/01/25 04:39:18;;;;;;;0.10;0.10;;;1.60;99.90;;;;;;4996822;28;20287;-64
2023/01/25 04:41:44;;;;;;;0.20;0.20;;;1.60;99.90;;;;;;4992608;28;20253;-63
2023/01/25 04:44:09;;;;;;;0.10;0.10;;;1.60;99.90;;;;;;4992719;28;20246;-63
2023/01/25 04:46:35;;;;;;;0.20;0.20;;;1.60;99.90;;;;;;4992641;28;20206;-63
2023/01/25 04:49:00;;;;;;;0.07;0.07;;;1.60;99.90;;;;;;4992392;28;20725;-63
2023/01/25 04:51:26;;;;;;;0.27;0.27;;;1.60;99.90;;;;;;5007346;28;20590;-63
2023/01/25 04:53:51;;;;;;;0.10;0.10;;;1.60;99.90;;;;;;5012044;28;20171;-63
2023/01/25 04:56:17;;;;;;;0.00;0.00;;;1.60;99.90;;;;;;5012047;28;20214;-62
2023/01/25 04:58:43;;;;;;;0.00;0.00;;;1.60;99.90;;;;;;5011762;28;20249;-63
2023/01/25 05:01:09;;;;;;;0.00;0.00;;;1.60;99.90;;;;;;5011738;28;20225;-63
2023/01/25 05:03:34;;;;;;;0.77;0.77;;;1.50;99.90;;;;;;5011699;28;20175;-63
2023/01/25 05:06:00;;;;;;;0.00;0.00;;;1.50;99.90;;;;;;5011442;28;20175;-63
2023/01/25 05:08:25;;;;;;;0.23;0.23;;;1.50;99.90;;;;;;5010982;28;20711;-62
2023/01/25 05:10:51;;;;;;;0.08;0.05;;;1.50;99.90;;;;;;5010231;28;20696;-63
2023/01/25 05:13:16;;;;;;;0.00;0.00;;;1.50;99.90;;;;;;5010988;28;20233;-65
2023/01/25 05:15:42;;;;;;;0.00;0.00;;;1.50;99.90;;;;;;5011438;28;20238;-67
2023/01/25 05:18:07;;;;;;;0.00;0.00;;;1.50;99.90;;;;;;5011644;28;20337;-65
2023/01/25 05:20:33;;;;;;;0.87;0.87;;;1.50;99.90;;;;;;4993970;28;20187;-64
2023/01/25 05:22:58;;;;;;;0.00;0.00;;;1.50;99.90;;;;;;5011246;28;20182;-65
2023/01/25 05:28:08;;;;;;;0.00;0.00;;;1.50;99.90;;;;;;5011339;28;20182;-66
2023/01/25 05:30:34;;;;;;;0.27;0.27;;;1.50;99.90;;;;;;5010962;28;20179;-62
2023/01/25 05:33:00;;;;;;;0.00;0.00;;;1.50;99.90;;;;;;5010498;28;20182;-64
2023/01/25 05:35:25;;;;;;;0.00;0.00;;;1.50;99.90;;;;;;5004818;28;20544;-64
2023/01/25 05:37:56;;;;;;;0.07;0.07;;;1.50;99.90;;;;;;5002102;28;20678;-65
2023/01/25 05:40:21;;;;;;;0.00;0.00;;;1.50;99.90;;;;;;5010241;28;20179;-63
2023/01/25 05:42:55;;;;;;;0.00;0.00;;;1.50;99.90;;;;;;5014897;28;20175;-61
2023/01/25 05:45:21;;;;;;;0.17;0.17;;;1.50;99.90;;;;;;5014927;28;20293;-68
2023/01/25 05:47:51;;;;;;;0.00;0.00;;;1.50;99.90;;;;;;5014663;28;20273;-60
2023/01/25 05:50:17;;;;;;;0.20;0.20;;;1.60;99.90;;;;;;5014585;28;20282;-66
2023/01/25 05:52:45;;;;;;;0.10;0.10;;;1.70;99.90;;;;;;5014050;28;20269;-66
2023/01/25 05:55:11;;;;;;;0.03;0.03;;;1.70;99.90;;;;;;5014368;28;20389;-65
2023/01/25 05:57:37;;;;;;;0.00;0.00;;;1.70;99.90;;;;;;5015198;28;20211;-65
2023/01/25 06:00:04;;;;;;;0.40;0.40;;;1.70;99.90;;;;;;5015001;28;20648;-65
2023/01/25 06:02:31;;;;;;;0.05;0.05;;;1.60;99.90;;;;;;5015158;28;20210;-65
2023/01/25 06:04:56;;;;;;;0.00;0.00;;;1.60;99.90;;;;;;5014973;28;20260;-65
2023/01/25 06:07:22;;;;;;;0.10;0.10;;;1.60;99.90;;;;;;5014933;28;20230;-66
2023/01/25 06:09:47;;;;;;;0.10;0.10;;;1.60;99.90;;;;;;5014972;28;20177;-65
2023/01/25 06:12:13;;;;;;;0.07;0.07;;;1.60;99.90;;;;;;5015091;28;20181;-65
2023/01/25 06:14:38;;;;;;;0.20;0.20;;;1.60;99.90;;;;;;5015004;28;20171;-64
2023/01/25 06:17:04;;;;;;;0.00;0.00;;;1.60;99.90;;;;;;5014520;28;20280;-65
2023/01/25 06:19:29;;;;;;;0.30;0.30;;;1.60;99.90;;;;;;5014889;28;20575;-65
2023/01/25 06:21:55;;;;;;;0.00;0.00;;;1.70;99.90;;;;;;5014727;28;20175;-64
2023/01/25 06:24:21;;;;;;;0.13;0.13;;;1.70;99.90;;;;;;5014797;28;20652;-65
2023/01/25 06:26:46;;;;;;;0.00;0.00;;;1.70;99.90;;;;;;4996979;28;20171;-65
2023/01/25 06:29:12;;;;;;;0.00;0.00;;;1.70;99.90;;;;;;5014674;28;20186;-65
2023/01/25 06:31:37;;;;;;;0.10;0.10;;;1.70;99.90;;;;;;5014711;28;20275;-64
2023/01/25 06:34:05;;;;;;;0.15;0.15;;;1.70;99.90;;;;;;5014392;28;20185;-65
2023/01/25 06:36:31;;;;;;;0.00;0.00;;;1.70;99.90;;;;;;5014565;28;20187;-65
2023/01/25 06:38:56;;;;;;;0.08;0.08;;;1.70;99.90;;;;;;5014415;28;20225;-65
2023/01/25 06:41:22;;;;;;;0.22;0.22;;;1.70;99.90;;;;;;5014416;28;20183;-65
2023/01/25 06:43:51;;;;;;;0.13;0.13;;;1.70;99.90;;;;;;5014361;28;20175;-65
2023/01/25 06:46:17;;;;;;;0.00;0.00;;;1.80;99.90;;;;;;5014149;28;20179;-65
2023/01/25 06:48:42;;;;;;;0.00;0.00;;;1.70;99.90;;;;;;4996754;28;20261;-64
2023/01/25 06:51:10;;;;;;;0.10;0.10;;;1.70;99.90;;;;;;5014299;28;20622;-65
2023/01/25 06:53:39;;;;;;;0.20;0.20;;;1.70;99.90;;;;;;5014375;28;20187;-65
2023/01/25 06:56:08;;;;;;;0.05;0.05;;;1.70;99.90;;;;;;5014060;28;20213;-65
2023/01/25 06:58:33;;;;;;;0.00;0.00;;;1.70;99.90;;;;;;5014233;28;20226;-65
2023/01/25 07:01:01;;;;;;;0.05;0.05;;;1.70;99.90;;;;;;4996609;28;20540;-65
2023/01/25 07:03:28;;;;;;;0.00;0.00;;;1.80;99.90;;;;;;5014195;28;20261;-65
2023/01/25 07:06:01;;;;;;;0.00;0.00;;;1.80;99.90;;;;;;5013701;28;20221;-65
2023/01/25 07:08:27;;;;;;;0.03;0.03;;;1.80;99.90;;;;;;5013894;28;20535;-65
2023/01/25 07:10:55;;;;;;;0.00;0.00;;;1.80;99.90;;;;;;5013797;28;20194;-65
2023/01/25 07:13:20;;;;;;;0.20;0.20;;;1.80;99.90;;;;;;5013782;28;20657;-65
2023/01/25 07:15:57;;;;;;;0.08;0.08;;;1.80;99.90;;;;;;5013422;28;20234;-65
2023/01/25 07:18:23;;;;;;;0.47;0.20;;;1.80;99.90;;;;;;5013676;28;20218;-65
2023/01/25 07:20:49;;;;;;;0.20;0.20;;;1.80;99.90;;;;;;5013629;28;20266;-65
2023/01/25 07:23:15;;;;;;;0.10;0.10;;;1.80;99.90;;;;;;5013914;28;20202;-65
2023/01/25 07:25:49;;;;;;;0.05;0.05;;;1.80;99.90;;;;;;5013624;28;20179;-65
2023/01/25 07:28:15;;;;;;;0.52;0.52;;;1.80;99.90;;;;;;5013772;28;20183;-65
2023/01/25 07:30:42;;;;;;;0.30;0.30;;;1.80;99.90;;;;;;5013550;28;20526;-65
2023/01/25 07:33:09;;;;;;;0.00;0.00;;;1.80;99.90;;;;;;5013719;28;20186;-65
2023/01/25 07:35:35;;;;;;;0.10;0.10;;;1.80;99.90;;;;;;5013511;28;20171;-65
2023/01/25 07:38:01;;;;;;;0.08;0.08;;;1.80;99.90;;;;;;5013308;28;20233;-65
2023/01/25 07:40:27;;;;;;;0.00;0.00;;;1.80;99.90;;;;;;5013428;28;20601;-65
2023/01/25 07:42:52;;;;;;;0.00;0.00;;;1.90;99.90;;;;;;5013281;28;20186;-65
2023/01/25 07:45:19;;;;;;;0.30;0.30;;;1.80;99.90;;;;;;5013556;28;20182;-65
2023/01/25 07:47:45;;;;;;;0.00;0.00;;;1.90;99.90;;;;;;5013160;28;20167;-64
2023/01/25 07:50:11;;;;;;;0.20;0.20;;;1.90;99.90;;;;;;4995956;28;20174;-65
2023/01/25 07:52:37;;;;;;;0.00;0.00;;;1.90;99.90;;;;;;5013033;28;20182;-65
2023/01/25 07:55:03;;;;;;;0.00;0.00;;;1.90;99.90;;;;;;5013094;28;20525;-65
2023/01/25 07:57:28;;;;;;;0.20;0.20;;;1.90;99.90;;;;;;5012057;28;20213;-65
2023/01/25 07:59:54;;;;;;;0.00;0.00;;;1.90;99.90;;;;;;5013014;28;20186;-65
2023/01/25 08:02:20;;;;;;;0.00;0.00;;;1.90;99.90;;;;;;5012960;28;20179;-65
2023/01/25 08:04:46;;;;;;;0.40;0.40;;;2.00;99.90;;;;;;5012662;28;20193;-65
2023/01/25 08:07:12;;;;;;;0.00;0.00;;;2.00;99.90;;;;;;4995428;28;20222;-65
2023/01/25 08:09:39;;;;;;;0.20;0.20;;;2.00;99.90;;;;;;5012898;28;20190;-64
2023/01/25 08:12:05;;;;;;;0.10;0.10;;;2.00;99.90;;;;;;5012677;28;20245;-65
2023/01/25 08:14:31;;;;;;;0.38;0.38;;;2.00;99.90;;;;;;5012791;28;20265;-65
2023/01/25 08:16:57;;;;;;;0.00;0.00;;;2.00;99.90;;;;;;5012528;28;20777;-65
2023/01/25 08:19:23;;;;;;;0.30;0.30;;;2.00;99.90;;;;;;5012719;28;20221;-65
2023/01/25 08:21:49;;;;;;;0.08;0.08;;;2.10;99.90;;;;;;5012389;28;20186;-65
2023/01/25 08:24:14;;;;;;;0.00;0.00;;;2.10;99.90;;;;;;5012688;28;20540;-65
2023/01/25 08:26:40;;;;;;;0.15;0.15;;;2.10;99.90;;;;;;5012608;28;20182;-64
2023/01/25 08:29:06;;;;;;;0.03;0.03;;;2.10;99.90;;;;;;5012501;28;20585;-65
2023/01/25 08:31:33;;;;;;;0.08;0.08;;;2.10;99.90;;;;;;5012614;28;20183;-65
2023/01/25 08:33:59;;;;;;;0.00;0.00;;;2.10;99.90;;;;;;5012503;28;20229;-66
2023/01/25 08:36:28;;;;;;;0.00;0.00;;;2.10;99.90;;;;;;4994734;28;20584;-65
2023/01/25 08:39:03;;;;;;;0.00;0.00;;;2.10;99.90;;;;;;5012219;28;20221;-66
2023/01/25 08:41:30;;;;;;;0.00;0.00;;;2.20;99.90;;;;;;5012341;28;20561;-65
2023/01/25 08:43:56;;;;;;;0.25;0.25;;;2.20;99.90;;;;;;5012284;28;20236;-65
2023/01/25 08:46:23;;;;;;;0.35;0.35;;;2.20;99.90;;;;;;5012528;28;20221;-65
2023/01/25 08:48:54;;;;;;;0.00;0.00;;;2.20;99.90;;;;;;5012226;28;20198;-65
2023/01/25 08:51:19;;;;;;;0.00;0.00;;;2.20;99.90;;;;;;5012605;28;20175;-65
2023/01/25 08:53:45;;;;;;;0.00;0.00;;;2.20;99.90;;;;;;5012250;28;20186;-64
2023/01/25 08:56:13;;;;;;;0.00;0.00;;;2.30;99.90;;;;;;5012382;28;20238;-64
2023/01/25 08:58:43;;;;;;;0.10;0.10;;;2.30;99.90;;;;;;4994616;28;20223;-64
2023/01/25 09:01:11;;;;;;;0.00;0.00;;;2.30;99.90;;;;;;5012025;28;20187;-65
2023/01/25 09:03:38;;;;;;;0.05;0.05;;;2.30;99.90;;;;;;5012109;28;20183;-65
2023/01/25 09:06:04;;;;;;;0.00;0.00;;;2.30;99.90;;;;;;5012046;28;20202;-65
2023/01/25 09:08:31;;;;;;;0.00;0.00;;;2.30;99.90;;;;;;5011888;28;20668;-64
2023/01/25 09:11:04;;;;;;;0.15;0.15;;;2.30;99.90;;;;;;5011994;28;20229;-65
2023/01/25 09:13:30;;;;;;;0.10;0.10;;;2.40;99.90;;;;;;5011839;28;20186;-65
2023/01/25 09:16:03;;;;;;;0.00;0.00;;;2.30;99.90;;;;;;5011856;28;20230;-65
2023/01/25 09:18:30;;;;;;;0.28;0.28;;;2.30;99.90;;;;;;4994191;28;20214;-65
2023/01/25 09:20:55;;;;;;;0.00;0.00;;;2.40;99.90;;;;;;5011911;28;20252;-66
2023/01/25 09:23:22;;;;;;;0.00;0.00;;;2.40;99.90;;;;;;5011991;28;20217;-66
2023/01/25 09:25:55;;;;;;;0.00;0.00;;;2.40;99.90;;;;;;4994166;28;20183;-67
2023/01/25 09:28:20;;;;;;;0.20;0.17;;;2.40;99.90;;;;;;5011965;28;20202;-65
2023/01/25 09:30:53;;;;;;;0.00;0.00;;;2.30;99.90;;;;;;5011668;28;20175;-65
2023/01/25 09:33:19;;;;;;;0.00;0.00;;;2.30;99.90;;;;;;5011913;28;20537;-65
2023/01/25 09:35:48;;;;;;;0.10;0.10;;;2.30;99.90;;;;;;5011620;28;20274;-65
2023/01/25 09:38:13;;;;;;;0.00;0.00;;;2.40;99.90;;;;;;5011615;28;20218;-65
2023/01/25 09:40:45;;;;;;;0.00;0.00;;;2.40;99.90;;;;;;5011782;28;20189;-64
2023/01/25 09:43:48;;;;;;;0.00;0.00;;;2.40;99.90;;;;;;5011979;28;20262;-64
2023/01/25 09:46:40;;;;;;;0.00;0.00;;;2.40;99.90;;;;;;5009443;28;20273;-66
2023/01/25 09:49:27;;;;;;;0.63;0.60;;;2.50;99.90;;;;;;5003269;28;20187;-66
2023/01/25 09:52:18;;;;;;;0.00;0.00;;;2.40;99.90;;;;;;5011543;28;20174;-66
2023/01/25 09:54:45;;;;;;;0.00;0.00;;;2.40;99.90;;;;;;5011644;28;20171;-65
2023/01/25 09:57:16;;;;;;;0.00;0.00;;;2.50;99.90;;;;;;5011764;28;20537;-65
2023/01/25 09:59:44;;;;;;;0.00;0.00;;;2.50;99.90;;;;;;5011699;28;20183;-66
2023/01/25 10:02:33;;;;;;;0.00;0.00;;;2.50;99.90;;;;;;5011570;28;20261;-66
2023/01/25 10:05:11;;;;;;;0.38;0.30;;;2.50;99.90;;;;;;5011266;28;20829;-63
2023/01/25 10:07:48;;;;;;;0.00;0.00;;;2.50;99.90;;;;;;5011500;28;20183;-63
2023/01/25 10:10:22;;;;;;;0.00;0.00;;;2.60;99.90;;;;;;5011580;28;20178;-64
2023/01/25 10:12:47;;;;;;;0.00;0.00;;;2.60;99.90;;;;;;4993515;28;20183;-64
2023/01/25 10:15:27;;;;;;;0.10;0.10;;;2.60;99.90;;;;;;5011196;28;20194;-64
2023/01/25 10:18:11;;;;;;;0.00;0.00;;;2.60;99.90;;;;;;5011228;28;20585;-64
2023/01/25 10:20:48;;;;;;;0.73;0.63;;;2.60;99.90;;;;;;5012568;28;20278;-65
2023/01/25 10:23:24;;;;;;;0.00;0.00;;;2.50;99.90;;;;;;5015195;28;20652;-65
2023/01/25 10:25:58;;;;;;;0.00;0.00;;;2.60;99.90;;;;;;5014878;28;20183;-65
2023/01/25 10:28:41;;;;;;;0.00;0.00;;;2.50;99.90;;;;;;5014829;28;20182;-65
2023/01/25 10:31:19;;;;;;;0.05;0.03;;;2.60;99.90;;;;;;5014976;28;20237;-64
2023/01/25 10:33:47;;;;;;;0.00;0.00;;;2.50;99.90;;;;;;5014612;28;20649;-65
2023/01/25 10:36:20;;;;;;;0.00;0.00;;;2.50;99.90;;;;;;5014791;28;20179;-64
2023/01/25 10:38:56;;;;;;;0.00;0.00;;;2.50;99.90;;;;;;5014384;28;20677;-64
2023/01/25 10:41:45;;;;;;;0.00;0.00;;;2.50;99.90;;;;;;5014676;28;20174;-65
2023/01/25 10:44:22;;;;;;;0.47;0.47;;;2.50;99.90;;;;;;5014595;28;20214;-65
2023/01/25 10:47:00;;;;;;;0.00;0.00;;;2.50;99.90;;;;;;5014224;28;20776;-66
2023/01/25 10:49:36;;;;;;;0.10;0.10;;;2.40;99.90;;;;;;5012191;28;20185;-65
2023/01/25 10:52:29;;;;;;;0.05;0.05;;;2.40;99.90;;;;;;4997908;28;20186;-66
2023/01/25 10:55:21;;;;;;;0.00;0.00;;;2.40;99.90;;;;;;5025555;28;20201;-65
2023/01/25 10:57:50;;;;;;;0.00;0.00;;;2.50;99.90;;;;;;5013075;28;20214;-65
2023/01/25 11:00:27;;;;;;;0.10;0.10;;;2.50;99.90;;;;;;5013661;28;20265;-64
2023/01/25 11:02:53;;;;;;;0.00;0.00;;;2.70;99.90;;;;;;5002851;28;20183;-65
2023/01/25 11:05:34;;;;;;;0.20;0.03;;;3.10;99.90;;;;;;5013493;28;20194;-64
2023/01/25 11:08:22;;;;;;;0.00;0.00;;;3.10;99.90;;;;;;5013345;28;20190;-64
2023/01/25 11:10:47;;;;;;;0.00;0.00;;;3.00;99.90;;;;;;5013600;28;20697;-66
2023/01/25 11:13:18;;;;;;;0.17;0.17;;;2.90;99.90;;;;;;5013417;28;20274;-65
2023/01/25 11:15:45;;;;;;;0.00;0.00;;;2.80;99.90;;;;;;5010119;28;20245;-65
2023/01/25 11:18:24;;;;;;;0.00;0.00;;;2.70;99.90;;;;;;5029534;28;20260;-65
2023/01/25 11:21:10;;;;;;;0.00;0.00;;;2.70;99.90;;;;;;5014373;28;20233;-65
2023/01/25 11:23:35;;;;;;;0.10;0.10;;;2.60;99.90;;;;;;5013857;28;20222;-64
2023/01/25 11:26:10;;;;;;;0.00;0.00;;;2.60;99.90;;;;;;5013589;28;20175;-64
2023/01/25 11:28:36;;;;;;;0.10;0.10;;;2.60;99.90;;;;;;5013662;28;20250;-64
2023/01/25 11:31:01;;;;;;;0.00;0.00;;;2.60;99.90;;;;;;5013230;28;20240;-65
2023/01/25 11:33:29;;;;;;;0.10;0.10;;;2.60;99.90;;;;;;5012542;28;20270;-65
2023/01/25 11:36:13;;;;;;;0.00;0.00;;;2.50;99.90;;;;;;5013401;28;20219;-65
2023/01/25 11:38:47;;;;;;;0.00;0.00;;;2.50;99.90;;;;;;5013025;28;20304;-64
2023/01/25 11:41:24;;;;;;;0.10;0.10;;;2.50;99.90;;;;;;5013399;28;20186;-65
2023/01/25 11:44:37;;;;;;;0.00;0.00;;;2.40;99.90;;;;;;5012900;28;20182;-65
2023/01/25 11:47:45;;;;;;;0.00;0.00;;;2.40;99.90;;;;;;4910679;29;20205;-64
2023/01/25 11:50:22;;;;;;;0.00;0.00;;;2.40;99.90;;;;;;4993837;28;20650;-65
2023/01/25 11:53:10;;;;;;;0.00;0.00;;;2.40;99.90;;;;;;5012949;28;20179;-65
2023/01/25 11:55:53;;;;;;;0.00;0.00;;;2.30;99.90;;;;;;5012879;28;20182;-65
2023/01/25 11:58:34;;;;;;;0.10;0.10;;;2.30;99.90;;;;;;5012533;28;20253;-65
2023/01/25 12:01:08;;;;;;;0.00;0.00;;;2.30;99.90;;;;;;5012795;28;20175;-65
2023/01/25 12:04:21;;;;;;;0.10;0.10;;;2.30;99.90;;;;;;5012849;28;20257;-65
2023/01/25 12:06:58;;;;;;;0.00;0.00;;;2.40;99.90;;;;;;4994081;28;20669;-65
2023/01/25 12:09:47;;;;;;;0.40;0.40;;;2.40;99.90;;;;;;5012594;28;20186;-64
2023/01/25 12:12:43;;;;;;;0.00;0.00;;;2.40;99.90;;;;;;5012356;28;20221;-65
2023/01/25 12:15:27;;;;;;;0.10;0.10;;;2.40;99.90;;;;;;5012276;28;20206;-65
2023/01/25 12:18:12;;;;;;;0.05;0.05;;;2.40;99.90;;;;;;5012423;28;20218;-65
2023/01/25 12:21:02;;;;;;;0.10;0.10;;;2.40;99.90;;;;;;4997976;28;20181;-65
2023/01/25 12:24:03;;;;;;;0.65;0.38;;;2.40;99.90;;;;;;5012622;28;20285;-66
2023/01/25 12:26:33;;;;;;;0.08;0.08;;;2.30;99.90;;;;;;4958792;28;20209;-65
2023/01/25 12:29:27;;;;;;;0.00;0.00;;;2.40;99.90;;;;;;5012256;28;20179;-65
2023/01/25 12:32:07;;;;;;;0.00;0.00;;;2.30;99.90;;;;;;5008942;28;20222;-65
2023/01/25 12:34:36;;;;;;;0.30;0.30;;;2.30;99.90;;;;;;5011459;28;20248;-65
2023/01/25 12:37:17;;;;;;;0.10;0.10;;;2.30;99.90;;;;;;5012169;28;20175;-65
2023/01/25 12:39:54;;;;;;;0.00;0.00;;;2.30;99.90;;;;;;5012063;28;20230;-65
2023/01/25 12:42:35;;;;;;;0.20;0.10;;;2.30;99.90;;;;;;5011899;28;20241;-65
2023/01/25 12:45:33;;;;;;;0.00;0.00;;;2.30;99.90;;;;;;5011838;28;20301;-65
2023/01/25 12:48:13;;;;;;;0.00;0.00;;;2.40;99.90;;;;;;4999379;28;20289;-65
2023/01/25 12:50:44;;;;;;;0.35;0.32;;;2.30;99.90;;;;;;4997094;28;20183;-64
2023/01/25 12:53:31;;;;;;;0.10;0.10;;;2.40;99.90;;;;;;5010745;28;20181;-65
2023/01/25 12:55:57;;;;;;;0.10;0.10;;;2.40;99.90;;;;;;5011711;28;20186;-65
2023/01/25 12:58:23;;;;;;;0.10;0.10;;;2.40;99.90;;;;;;5011596;28;20218;-65
2023/01/25 13:01:02;;;;;;;0.00;0.00;;;2.40;99.90;;;;;;5011810;28;20189;-65
2023/01/25 13:03:46;;;;;;;0.05;0.05;;;2.40;99.90;;;;;;5011876;28;20273;-65
2023/01/25 13:06:39;;;;;;;0.00;0.00;;;2.50;99.90;;;;;;5007999;28;20188;-65
2023/01/25 13:09:23;;;;;;;0.08;0.08;;;2.50;99.90;;;;;;4999744;28;20179;-65
2023/01/25 13:11:49;;;;;;;0.00;0.00;;;2.50;99.90;;;;;;5011500;28;20544;-65
2023/01/25 13:14:14;;;;;;;0.45;0.38;;;2.60;99.90;;;;;;5011484;28;20186;-65
2023/01/25 13:16:43;;;;;;;0.00;0.00;;;2.50;99.90;;;;;;5011653;28;20693;-65